sensor_id;sensor_type;location;lat;lon;timestamp;pressure;altitude;pressure_sealevel;temperature;humidity
79413;BME280;68863;49.528;11.010;2023-04-06T00:00:45;98586.88;;;0.87;60.68
79413;BME280;68863;49.528;11.010;2023-04-06T00:01:45;98592.53;;;1.00;60.36
79413;BME280;68863;49.528;11.010;2023-04-06T00:02:46;98592.59;;;0.98;60.30
79413;BME280;68863;49.528;11.010;2023-04-06T00:03:47;98582.00;;;1.07;59.74
79413;BME280;68863;49.528;11.010;2023-04-06T00:04:47;98584.50;;;1.10;58.90
79413;BME280;68863;49.528;11.010;2023-04-06T00:05:48;98587.09;;;1.10;58.98
79413;BME280;68863;49.528;11.010;2023-04-06T00:06:48;98582.91;;;1.06;59.36
79413;BME280;68863;49.528;11.010;2023-04-06T00:07:49;98590.22;;;0.90;60.04
79413;BME280;68863;49.528;11.010;2023-04-06T00:08:49;98587.06;;;0.79;60.35
79413;BME280;68863;49.528;11.010;2023-04-06T00:09:49;98579.97;;;0.86;60.29
79413;BME280;68863;49.528;11.010;2023-04-06T00:10:50;98578.13;;;0.91;59.71
79413;BME280;68863;49.528;11.010;2023-04-06T00:11:50;98581.63;;;0.90;59.53
79413;BME280;68863;49.528;11.010;2023-04-06T00:12:50;98581.69;;;0.87;59.18
79413;BME280;68863;49.528;11.010;2023-04-06T00:13:50;98579.03;;;0.90;58.90
79413;BME280;68863;49.528;11.010;2023-04-06T00:14:51;98579.19;;;0.84;59.90
79413;BME280;68863;49.528;11.010;2023-04-06T00:15:51;98573.19;;;0.82;59.75
79413;BME280;68863;49.528;11.010;2023-04-06T00:16:51;98575.78;;;0.82;59.83
79413;BME280;68863;49.528;11.010;2023-04-06T00:17:52;98577.56;;;0.80;60.71
79413;BME280;68863;49.528;11.010;2023-04-06T00:18:52;98576.09;;;0.69;60.40
79413;BME280;68863;49.528;11.010;2023-04-06T00:19:52;98578.75;;;0.68;60.23
79413;BME280;68863;49.528;11.010;2023-04-06T00:20:53;98575.34;;;0.66;60.31
79413;BME280;68863;49.528;11.010;2023-04-06T00:21:53;98581.81;;;0.82;60.12
79413;BME280;68863;49.528;11.010;2023-04-06T00:22:53;98580.22;;;0.78;60.61
79413;BME280;68863;49.528;11.010;2023-04-06T00:23:54;98576.69;;;0.81;60.35
79413;BME280;68863;49.528;11.010;2023-04-06T00:24:55;98581.91;;;0.79;60.96
79413;BME280;68863;49.528;11.010;2023-04-06T00:25:55;98580.81;;;0.54;61.94
79413;BME280;68863;49.528;11.010;2023-04-06T00:26:55;98580.47;;;0.67;62.16
79413;BME280;68863;49.528;11.010;2023-04-06T00:27:56;98579.06;;;0.56;62.97
79413;BME280;68863;49.528;11.010;2023-04-06T00:28:56;98581.38;;;0.66;62.06
79413;BME280;68863;49.528;11.010;2023-04-06T00:29:58;98576.94;;;0.70;62.21
79413;BME280;68863;49.528;11.010;2023-04-06T00:30:58;98577.97;;;0.64;61.87
79413;BME280;68863;49.528;11.010;2023-04-06T00:31:59;98578.78;;;0.66;61.95
79413;BME280;68863;49.528;11.010;2023-04-06T00:32:59;98576.03;;;0.72;61.87
79413;BME280;68863;49.528;11.010;2023-04-06T00:34:00;98572.66;;;0.70;61.30
79413;BME280;68863;49.528;11.010;2023-04-06T00:35:02;98571.91;;;0.65;61.21
79413;BME280;68863;49.528;11.010;2023-04-06T00:36:03;98574.34;;;0.71;61.08
79413;BME280;68863;49.528;11.010;2023-04-06T00:37:03;98577.97;;;0.64;61.43
79413;BME280;68863;49.528;11.010;2023-04-06T00:38:04;98579.59;;;0.68;60.75
79413;BME280;68863;49.528;11.010;2023-04-06T00:39:04;98573.56;;;0.68;61.06
79413;BME280;68863;49.528;11.010;2023-04-06T00:40:05;98572.69;;;0.69;60.37
79413;BME280;68863;49.528;11.010;2023-04-06T00:41:05;98569.38;;;0.64;60.08
79413;BME280;68863;49.528;11.010;2023-04-06T00:42:13;98572.09;;;0.59;60.59
79413;BME280;68863;49.528;11.010;2023-04-06T00:43:14;98571.44;;;0.51;61.26
79413;BME280;68863;49.528;11.010;2023-04-06T00:44:14;98573.91;;;0.54;61.30
79413;BME280;68863;49.528;11.010;2023-04-06T00:45:15;98571.38;;;0.53;61.53
79413;BME280;68863;49.528;11.010;2023-04-06T00:46:15;98568.94;;;0.48;60.99
79413;BME280;68863;49.528;11.010;2023-04-06T00:47:16;98570.94;;;0.37;61.25
79413;BME280;68863;49.528;11.010;2023-04-06T00:48:16;98574.59;;;0.28;62.03
79413;BME280;68863;49.528;11.010;2023-04-06T00:49:16;98570.84;;;0.40;61.87
79413;BME280;68863;49.528;11.010;2023-04-06T00:50:17;98570.03;;;0.38;61.80
79413;BME280;68863;49.528;11.010;2023-04-06T00:51:17;98564.47;;;0.53;61.36
79413;BME280;68863;49.528;11.010;2023-04-06T00:52:17;98568.72;;;0.56;60.97
79413;BME280;68863;49.528;11.010;2023-04-06T00:53:18;98565.50;;;0.47;61.22
79413;BME280;68863;49.528;11.010;2023-04-06T00:54:18;98567.03;;;0.55;61.27
79413;BME280;68863;49.528;11.010;2023-04-06T00:55:18;98563.75;;;0.48;61.19
79413;BME280;68863;49.528;11.010;2023-04-06T00:56:19;98565.38;;;0.52;60.78
79413;BME280;68863;49.528;11.010;2023-04-06T00:57:19;98567.13;;;0.50;60.70
79413;BME280;68863;49.528;11.010;2023-04-06T00:58:20;98561.81;;;0.56;60.39
79413;BME280;68863;49.528;11.010;2023-04-06T00:59:20;98564.97;;;0.67;60.14
79413;BME280;68863;49.528;11.010;2023-04-06T01:00:21;98561.44;;;0.70;60.20
79413;BME280;68863;49.528;11.010;2023-04-06T01:01:23;98565.69;;;0.72;59.81
79413;BME280;68863;49.528;11.010;2023-04-06T01:02:24;98564.09;;;0.68;59.67
79413;BME280;68863;49.528;11.010;2023-04-06T01:03:25;98564.22;;;0.64;60.02
79413;BME280;68863;49.528;11.010;2023-04-06T01:04:26;98562.63;;;0.58;59.74
79413;BME280;68863;49.528;11.010;2023-04-06T01:05:26;98562.34;;;0.69;59.45
79413;BME280;68863;49.528;11.010;2023-04-06T01:06:27;98557.69;;;0.49;60.59
79413;BME280;68863;49.528;11.010;2023-04-06T01:07:27;98551.00;;;0.42;60.94
79413;BME280;68863;49.528;11.010;2023-04-06T01:08:28;98559.56;;;0.44;60.87
79413;BME280;68863;49.528;11.010;2023-04-06T01:09:29;98553.50;;;0.45;61.25
79413;BME280;68863;49.528;11.010;2023-04-06T01:10:30;98557.75;;;0.47;61.22
79413;BME280;68863;49.528;11.010;2023-04-06T01:11:30;98559.56;;;0.44;61.19
79413;BME280;68863;49.528;11.010;2023-04-06T01:12:31;98559.69;;;0.39;60.63
79413;BME280;68863;49.528;11.010;2023-04-06T01:13:31;98559.78;;;0.35;61.33
79413;BME280;68863;49.528;11.010;2023-04-06T01:14:32;98563.19;;;0.37;61.08
79413;BME280;68863;49.528;11.010;2023-04-06T01:15:33;98561.69;;;0.27;61.17
79413;BME280;68863;49.528;11.010;2023-04-06T01:16:35;98558.91;;;0.36;60.84
79413;BME280;68863;49.528;11.010;2023-04-06T01:17:36;98560.53;;;0.38;61.21
79413;BME280;68863;49.528;11.010;2023-04-06T01:18:37;98563.25;;;0.34;61.44
79413;BME280;68863;49.528;11.010;2023-04-06T01:19:37;98566.19;;;0.20;61.44
79413;BME280;68863;49.528;11.010;2023-04-06T01:20:38;98564.06;;;0.36;61.58
79413;BME280;68863;49.528;11.010;2023-04-06T01:21:39;98563.31;;;0.31;61.37
79413;BME280;68863;49.528;11.010;2023-04-06T01:22:39;98563.00;;;0.43;61.10
79413;BME280;68863;49.528;11.010;2023-04-06T01:23:40;98556.00;;;0.48;61.49
79413;BME280;68863;49.528;11.010;2023-04-06T01:24:40;98552.47;;;0.52;61.16
79413;BME280;68863;49.528;11.010;2023-04-06T01:25:40;98557.00;;;0.42;61.13
79413;BME280;68863;49.528;11.010;2023-04-06T01:26:40;98557.78;;;0.46;60.15
79413;BME280;68863;49.528;11.010;2023-04-06T01:27:41;98552.22;;;0.27;60.83
79413;BME280;68863;49.528;11.010;2023-04-06T01:28:41;98548.66;;;0.31;61.19
79413;BME280;68863;49.528;11.010;2023-04-06T01:29:41;98552.31;;;0.24;61.30
79413;BME280;68863;49.528;11.010;2023-04-06T01:30:42;98546.91;;;0.33;60.79
79413;BME280;68863;49.528;11.010;2023-04-06T01:31:43;98547.03;;;0.29;60.65
79413;BME280;68863;49.528;11.010;2023-04-06T01:32:43;98547.22;;;0.21;61.43
79413;BME280;68863;49.528;11.010;2023-04-06T01:33:43;98548.06;;;0.21;61.69
79413;BME280;68863;49.528;11.010;2023-04-06T01:34:44;98539.72;;;0.10;62.25
79413;BME280;68863;49.528;11.010;2023-04-06T01:35:44;98545.78;;;0.09;62.46
79413;BME280;68863;49.528;11.010;2023-04-06T01:36:44;98538.19;;;0.03;61.80
79413;BME280;68863;49.528;11.010;2023-04-06T01:37:45;98537.13;;;0.12;61.90
79413;BME280;68863;49.528;11.010;2023-04-06T01:38:45;98540.56;;;0.12;61.74
79413;BME280;68863;49.528;11.010;2023-04-06T01:39:46;98545.84;;;0.06;61.52
79413;BME280;68863;49.528;11.010;2023-04-06T01:40:46;98545.06;;;0.03;61.45
79413;BME280;68863;49.528;11.010;2023-04-06T01:41:46;98547.03;;;-0.07;61.94
79413;BME280;68863;49.528;11.010;2023-04-06T01:42:50;98541.22;;;-0.17;62.45
79413;BME280;68863;49.528;11.010;2023-04-06T01:43:50;98540.38;;;-0.17;61.82
79413;BME280;68863;49.528;11.010;2023-04-06T01:44:54;98540.16;;;-0.08;61.55
79413;BME280;68863;49.528;11.010;2023-04-06T01:45:54;98532.66;;;-0.17;61.90
79413;BME280;68863;49.528;11.010;2023-04-06T01:46:55;98530.28;;;-0.27;61.41
79413;BME280;68863;49.528;11.010;2023-04-06T01:47:56;98537.06;;;-0.22;61.19
79413;BME280;68863;49.528;11.010;2023-04-06T01:48:56;98536.81;;;-0.12;61.69
79413;BME280;68863;49.528;11.010;2023-04-06T01:49:57;98536.84;;;-0.13;60.88
79413;BME280;68863;49.528;11.010;2023-04-06T01:50:57;98539.66;;;-0.22;61.37
79413;BME280;68863;49.528;11.010;2023-04-06T01:51:57;98539.59;;;-0.19;61.60
79413;BME280;68863;49.528;11.010;2023-04-06T01:52:57;98532.88;;;-0.27;61.38
79413;BME280;68863;49.528;11.010;2023-04-06T01:53:58;98532.03;;;-0.29;61.05
79413;BME280;68863;49.528;11.010;2023-04-06T01:54:58;98530.34;;;-0.30;61.00
79413;BME280;68863;49.528;11.010;2023-04-06T01:55:58;98537.09;;;-0.24;60.97
79413;BME280;68863;49.528;11.010;2023-04-06T01:56:58;98535.34;;;-0.23;61.00
79413;BME280;68863;49.528;11.010;2023-04-06T01:57:59;98539.06;;;-0.34;61.62
79413;BME280;68863;49.528;11.010;2023-04-06T01:58:59;98539.00;;;-0.32;61.53
79413;BME280;68863;49.528;11.010;2023-04-06T01:59:59;98537.25;;;-0.32;61.21
79413;BME280;68863;49.528;11.010;2023-04-06T02:01:00;98536.31;;;-0.28;61.12
79413;BME280;68863;49.528;11.010;2023-04-06T02:02:00;98537.81;;;-0.17;61.09
79413;BME280;68863;49.528;11.010;2023-04-06T02:03:00;98539.59;;;-0.21;61.30
79413;BME280;68863;49.528;11.010;2023-04-06T02:04:01;98542.22;;;-0.22;60.96
79413;BME280;68863;49.528;11.010;2023-04-06T02:05:01;98537.91;;;-0.22;61.48
79413;BME280;68863;49.528;11.010;2023-04-06T02:06:01;98530.00;;;-0.14;60.98
79413;BME280;68863;49.528;11.010;2023-04-06T02:07:02;98537.00;;;-0.19;61.05
79413;BME280;68863;49.528;11.010;2023-04-06T02:08:02;98537.97;;;-0.25;61.81
79413;BME280;68863;49.528;11.010;2023-04-06T02:09:02;98536.34;;;-0.29;61.84
79413;BME280;68863;49.528;11.010;2023-04-06T02:10:03;98536.06;;;-0.17;61.15
79413;BME280;68863;49.528;11.010;2023-04-06T02:11:03;98538.81;;;-0.25;61.07
79413;BME280;68863;49.528;11.010;2023-04-06T02:12:04;98539.53;;;-0.18;61.15
79413;BME280;68863;49.528;11.010;2023-04-06T02:13:04;98548.06;;;-0.16;61.05
79413;BME280;68863;49.528;11.010;2023-04-06T02:14:04;98541.09;;;-0.11;61.25
79413;BME280;68863;49.528;11.010;2023-04-06T02:15:05;98533.28;;;-0.08;60.78
79413;BME280;68863;49.528;11.010;2023-04-06T02:16:06;98534.97;;;-0.07;60.95
79413;BME280;68863;49.528;11.010;2023-04-06T02:17:06;98534.50;;;-0.24;61.06
79413;BME280;68863;49.528;11.010;2023-04-06T02:18:06;98531.03;;;-0.21;61.66
79413;BME280;68863;49.528;11.010;2023-04-06T02:19:06;98529.34;;;-0.24;61.47
79413;BME280;68863;49.528;11.010;2023-04-06T02:20:07;98532.94;;;-0.30;61.74
79413;BME280;68863;49.528;11.010;2023-04-06T02:21:07;98535.34;;;-0.23;61.29
79413;BME280;68863;49.528;11.010;2023-04-06T02:22:09;98533.72;;;-0.28;61.95
79413;BME280;68863;49.528;11.010;2023-04-06T02:23:09;98533.88;;;-0.34;61.96
79413;BME280;68863;49.528;11.010;2023-04-06T02:24:09;98534.84;;;-0.38;61.66
79413;BME280;68863;49.528;11.010;2023-04-06T02:25:10;98535.75;;;-0.40;62.17
79413;BME280;68863;49.528;11.010;2023-04-06T02:26:10;98531.31;;;-0.35;62.20
79413;BME280;68863;49.528;11.010;2023-04-06T02:27:11;98534.78;;;-0.35;61.80
79413;BME280;68863;49.528;11.010;2023-04-06T02:28:11;98533.81;;;-0.31;61.67
79413;BME280;68863;49.528;11.010;2023-04-06T02:29:11;98529.63;;;-0.36;61.84
79413;BME280;68863;49.528;11.010;2023-04-06T02:30:12;98533.91;;;-0.35;61.79
79413;BME280;68863;49.528;11.010;2023-04-06T02:31:12;98529.63;;;-0.36;61.78
79413;BME280;68863;49.528;11.010;2023-04-06T02:32:14;98535.84;;;-0.45;61.77
79413;BME280;68863;49.528;11.010;2023-04-06T02:33:15;98532.31;;;-0.41;62.26
79413;BME280;68863;49.528;11.010;2023-04-06T02:34:15;98534.00;;;-0.38;62.02
79413;BME280;68863;49.528;11.010;2023-04-06T02:35:17;98532.31;;;-0.41;62.01
79413;BME280;68863;49.528;11.010;2023-04-06T02:36:18;98536.69;;;-0.43;62.02
79413;BME280;68863;49.528;11.010;2023-04-06T02:37:18;98530.75;;;-0.48;62.15
79413;BME280;68863;49.528;11.010;2023-04-06T02:38:18;98526.78;;;-0.63;62.24
79413;BME280;68863;49.528;11.010;2023-04-06T02:39:19;98530.91;;;-0.54;62.41
79413;BME280;68863;49.528;11.010;2023-04-06T02:40:19;98530.03;;;-0.53;62.79
79413;BME280;68863;49.528;11.010;2023-04-06T02:41:19;98527.09;;;-0.38;62.25
79413;BME280;68863;49.528;11.010;2023-04-06T02:42:20;98535.84;;;-0.45;62.25
79413;BME280;68863;49.528;11.010;2023-04-06T02:43:20;98525.38;;;-0.37;61.90
79413;BME280;68863;49.528;11.010;2023-04-06T02:44:20;98529.78;;;-0.42;61.87
79413;BME280;68863;49.528;11.010;2023-04-06T02:45:21;98529.97;;;-0.50;62.73
79413;BME280;68863;49.528;11.010;2023-04-06T02:46:21;98523.13;;;-0.53;62.87
79413;BME280;68863;49.528;11.010;2023-04-06T02:47:21;98532.72;;;-0.58;62.56
79413;BME280;68863;49.528;11.010;2023-04-06T02:48:21;98532.88;;;-0.65;63.31
79413;BME280;68863;49.528;11.010;2023-04-06T02:49:22;98529.28;;;-0.58;63.23
79413;BME280;68863;49.528;11.010;2023-04-06T02:50:22;98524.41;;;-0.72;63.41
79413;BME280;68863;49.528;11.010;2023-04-06T02:51:22;98528.41;;;-0.59;62.24
79413;BME280;68863;49.528;11.010;2023-04-06T02:52:22;98526.72;;;-0.58;62.07
79413;BME280;68863;49.528;11.010;2023-04-06T02:53:23;98535.13;;;-0.50;62.45
79413;BME280;68863;49.528;11.010;2023-04-06T02:54:23;98527.50;;;-0.56;62.80
79413;BME280;68863;49.528;11.010;2023-04-06T02:55:23;98520.56;;;-0.53;62.53
79413;BME280;68863;49.528;11.010;2023-04-06T02:56:24;98528.34;;;-0.54;62.22
79413;BME280;68863;49.528;11.010;2023-04-06T02:57:24;98523.19;;;-0.56;62.80
79413;BME280;68863;49.528;11.010;2023-04-06T02:58:25;98520.50;;;-0.51;62.84
79413;BME280;68863;49.528;11.010;2023-04-06T02:59:25;98525.84;;;-0.59;62.72
79413;BME280;68863;49.528;11.010;2023-04-06T03:00:26;98540.44;;;-0.58;63.22
79413;BME280;68863;49.528;11.010;2023-04-06T03:01:26;98529.63;;;-0.75;63.06
79413;BME280;68863;49.528;11.010;2023-04-06T03:02:26;98534.66;;;-0.69;62.86
79413;BME280;68863;49.528;11.010;2023-04-06T03:03:27;98538.97;;;-0.69;62.58
79413;BME280;68863;49.528;11.010;2023-04-06T03:04:27;98538.72;;;-0.59;62.50
79413;BME280;68863;49.528;11.010;2023-04-06T03:05:27;98531.06;;;-0.62;62.08
79413;BME280;68863;49.528;11.010;2023-04-06T03:06:27;98530.31;;;-0.67;62.44
79413;BME280;68863;49.528;11.010;2023-04-06T03:07:28;98533.66;;;-0.63;61.96
79413;BME280;68863;49.528;11.010;2023-04-06T03:08:28;98531.25;;;-0.69;62.69
79413;BME280;68863;49.528;11.010;2023-04-06T03:09:28;98531.47;;;-0.80;62.89
79413;BME280;68863;49.528;11.010;2023-04-06T03:10:29;98539.91;;;-0.73;62.84
79413;BME280;68863;49.528;11.010;2023-04-06T03:11:30;98536.31;;;-0.66;62.35
79413;BME280;68863;49.528;11.010;2023-04-06T03:12:30;98527.78;;;-0.68;62.73
79413;BME280;68863;49.528;11.010;2023-04-06T03:13:30;98531.97;;;-0.64;62.56
79413;BME280;68863;49.528;11.010;2023-04-06T03:14:30;98534.59;;;-0.66;62.78
79413;BME280;68863;49.528;11.010;2023-04-06T03:15:31;98534.63;;;-0.67;62.34
79413;BME280;68863;49.528;11.010;2023-04-06T03:16:31;98532.09;;;-0.69;62.56
79413;BME280;68863;49.528;11.010;2023-04-06T03:17:31;98530.66;;;-0.84;63.25
79413;BME280;68863;49.528;11.010;2023-04-06T03:18:32;98536.56;;;-0.77;63.43
79413;BME280;68863;49.528;11.010;2023-04-06T03:19:32;98534.00;;;-0.79;62.73
79413;BME280;68863;49.528;11.010;2023-04-06T03:20:32;98531.50;;;-0.82;63.56
79413;BME280;68863;49.528;11.010;2023-04-06T03:21:33;98536.78;;;-0.88;63.35
79413;BME280;68863;49.528;11.010;2023-04-06T03:22:33;98530.88;;;-0.93;64.07
79413;BME280;68863;49.528;11.010;2023-04-06T03:23:33;98530.13;;;-1.00;64.45
79413;BME280;68863;49.528;11.010;2023-04-06T03:24:33;98534.41;;;-0.99;64.21
79413;BME280;68863;49.528;11.010;2023-04-06T03:25:34;98537.97;;;-1.04;64.38
79413;BME280;68863;49.528;11.010;2023-04-06T03:26:34;98530.78;;;-0.90;63.88
79413;BME280;68863;49.528;11.010;2023-04-06T03:27:34;98540.97;;;-0.84;63.43
79413;BME280;68863;49.528;11.010;2023-04-06T03:28:35;98535.03;;;-0.87;63.76
79413;BME280;68863;49.528;11.010;2023-04-06T03:29:35;98538.59;;;-0.93;64.07
79413;BME280;68863;49.528;11.010;2023-04-06T03:30:35;98531.56;;;-0.86;64.02
79413;BME280;68863;49.528;11.010;2023-04-06T03:31:35;98529.78;;;-0.83;63.60
79413;BME280;68863;49.528;11.010;2023-04-06T03:32:36;98531.41;;;-0.79;63.32
79413;BME280;68863;49.528;11.010;2023-04-06T03:33:36;98538.28;;;-0.78;63.93
79413;BME280;68863;49.528;11.010;2023-04-06T03:34:37;98535.78;;;-0.81;63.66
79413;BME280;68863;49.528;11.010;2023-04-06T03:35:38;98540.34;;;-0.95;63.67
79413;BME280;68863;49.528;11.010;2023-04-06T03:36:38;98535.25;;;-0.98;64.35
79413;BME280;68863;49.528;11.010;2023-04-06T03:37:38;98530.78;;;-0.88;63.74
79413;BME280;68863;49.528;11.010;2023-04-06T03:38:39;98536.72;;;-0.85;63.47
79413;BME280;68863;49.528;11.010;2023-04-06T03:39:39;98536.88;;;-0.94;63.26
79413;BME280;68863;49.528;11.010;2023-04-06T03:40:39;98536.88;;;-0.92;63.39
79413;BME280;68863;49.528;11.010;2023-04-06T03:41:40;98536.81;;;-0.91;63.55
79413;BME280;68863;49.528;11.010;2023-04-06T03:42:40;98545.56;;;-0.98;63.69
79413;BME280;68863;49.528;11.010;2023-04-06T03:43:40;98540.38;;;-0.96;63.68
79413;BME280;68863;49.528;11.010;2023-04-06T03:44:40;98537.91;;;-1.01;63.25
79413;BME280;68863;49.528;11.010;2023-04-06T03:45:41;98537.91;;;-1.01;63.97
79413;BME280;68863;49.528;11.010;2023-04-06T03:46:41;98536.72;;;-0.85;62.98
79413;BME280;68863;49.528;11.010;2023-04-06T03:47:41;98536.81;;;-0.91;63.56
79413;BME280;68863;49.528;11.010;2023-04-06T03:48:41;98542.97;;;-0.98;63.88
79413;BME280;68863;49.528;11.010;2023-04-06T03:49:42;98541.56;;;-1.13;64.17
79413;BME280;68863;49.528;11.010;2023-04-06T03:50:42;98544.06;;;-1.08;63.66
79413;BME280;68863;49.528;11.010;2023-04-06T03:51:42;98544.00;;;-1.05;64.12
79413;BME280;68863;49.528;11.010;2023-04-06T03:52:42;98544.75;;;-1.02;63.37
79413;BME280;68863;49.528;11.010;2023-04-06T03:53:43;98547.44;;;-1.06;63.45
79413;BME280;68863;49.528;11.010;2023-04-06T03:54:43;98545.69;;;-1.04;63.54
79413;BME280;68863;49.528;11.010;2023-04-06T03:55:43;98545.44;;;-0.92;63.51
79413;BME280;68863;49.528;11.010;2023-04-06T03:56:43;98544.38;;;-0.82;62.94
79413;BME280;68863;49.528;11.010;2023-04-06T03:57:44;98538.75;;;-1.02;63.56
79413;BME280;68863;49.528;11.010;2023-04-06T03:58:44;98540.28;;;-0.92;63.50
79413;BME280;68863;49.528;11.010;2023-04-06T03:59:50;98547.13;;;-0.91;63.82
79413;BME280;68863;49.528;11.010;2023-04-06T04:00:50;98537.91;;;-1.01;63.66
79413;BME280;68863;49.528;11.010;2023-04-06T04:01:51;98542.97;;;-0.96;64.27
79413;BME280;68863;49.528;11.010;2023-04-06T04:02:51;98543.78;;;-0.94;64.14
79413;BME280;68863;49.528;11.010;2023-04-06T04:03:51;98546.59;;;-1.05;63.83
79413;BME280;68863;49.528;11.010;2023-04-06T04:04:52;98544.22;;;-1.16;64.40
79413;BME280;68863;49.528;11.010;2023-04-06T04:05:52;98544.00;;;-1.05;64.24
79413;BME280;68863;49.528;11.010;2023-04-06T04:06:52;98542.31;;;-1.08;63.86
79413;BME280;68863;49.528;11.010;2023-04-06T04:07:53;98550.28;;;-1.20;63.92
79413;BME280;68863;49.528;11.010;2023-04-06T04:08:53;98547.63;;;-1.15;64.58
79413;BME280;68863;49.528;11.010;2023-04-06T04:09:53;98544.84;;;-1.05;64.38
79413;BME280;68863;49.528;11.010;2023-04-06T04:10:53;98547.72;;;-1.21;64.75
79413;BME280;68863;49.528;11.010;2023-04-06T04:11:54;98547.72;;;-1.20;64.22
79413;BME280;68863;49.528;11.010;2023-04-06T04:12:54;98549.31;;;-1.13;64.02
79413;BME280;68863;49.528;11.010;2023-04-06T04:13:54;98545.06;;;-1.15;63.99
79413;BME280;68863;49.528;11.010;2023-04-06T04:14:55;98549.25;;;-1.11;64.39
79413;BME280;68863;49.528;11.010;2023-04-06T04:15:55;98547.31;;;-1.00;63.77
79413;BME280;68863;49.528;11.010;2023-04-06T04:16:56;98549.81;;;-0.95;63.54
79413;BME280;68863;49.528;11.010;2023-04-06T04:17:56;98550.91;;;-1.07;63.53
79413;BME280;68863;49.528;11.010;2023-04-06T04:18:56;98552.72;;;-1.12;64.21
79413;BME280;68863;49.528;11.010;2023-04-06T04:19:58;98546.72;;;-1.13;64.03
79413;BME280;68863;49.528;11.010;2023-04-06T04:20:59;98551.38;;;-1.33;64.47
79413;BME280;68863;49.528;11.010;2023-04-06T04:21:59;98552.41;;;-1.40;64.66
79413;BME280;68863;49.528;11.010;2023-04-06T04:22:59;98549.88;;;-1.43;64.94
79413;BME280;68863;49.528;11.010;2023-04-06T04:23:59;98555.53;;;-1.26;64.89
79413;BME280;68863;49.528;11.010;2023-04-06T04:25:00;98556.44;;;-1.27;64.50
79413;BME280;68863;49.528;11.010;2023-04-06T04:26:00;98554.69;;;-1.27;64.34
79413;BME280;68863;49.528;11.010;2023-04-06T04:27:00;98556.31;;;-1.21;64.58
79413;BME280;68863;49.528;11.010;2023-04-06T04:28:01;98551.94;;;-1.17;64.22
79413;BME280;68863;49.528;11.010;2023-04-06T04:29:01;98551.78;;;-1.08;63.43
79413;BME280;68863;49.528;11.010;2023-04-06T04:30:02;98560.41;;;-1.11;63.73
79413;BME280;68863;49.528;11.010;2023-04-06T04:31:02;98547.56;;;-1.12;63.72
79413;BME280;68863;49.528;11.010;2023-04-06T04:32:03;98552.69;;;-1.11;64.34
79413;BME280;68863;49.528;11.010;2023-04-06T04:33:03;98545.09;;;-1.17;63.82
79413;BME280;68863;49.528;11.010;2023-04-06T04:34:03;98552.63;;;-1.09;64.57
79413;BME280;68863;49.528;11.010;2023-04-06T04:35:04;98554.22;;;-1.01;64.03
79413;BME280;68863;49.528;11.010;2023-04-06T04:36:05;98558.56;;;-1.04;63.44
79413;BME280;68863;49.528;11.010;2023-04-06T04:37:06;98549.16;;;-1.05;64.09
79413;BME280;68863;49.528;11.010;2023-04-06T04:38:06;98551.88;;;-1.14;63.07
79413;BME280;68863;49.528;11.010;2023-04-06T04:39:06;98552.03;;;-1.20;63.52
79413;BME280;68863;49.528;11.010;2023-04-06T04:40:07;98546.03;;;-1.23;64.13
79413;BME280;68863;49.528;11.010;2023-04-06T04:41:07;98555.34;;;-1.15;64.07
79413;BME280;68863;49.528;11.010;2023-04-06T04:42:08;98550.81;;;-1.03;63.08
79413;BME280;68863;49.528;11.010;2023-04-06T04:43:08;98553.31;;;-1.00;62.79
79413;BME280;68863;49.528;11.010;2023-04-06T04:44:09;98559.38;;;-1.01;63.08
79413;BME280;68863;49.528;11.010;2023-04-06T04:45:09;98554.06;;;-0.93;62.74
79413;BME280;68863;49.528;11.010;2023-04-06T04:46:10;98555.81;;;-0.95;63.05
79413;BME280;68863;49.528;11.010;2023-04-06T04:47:16;98561.63;;;-0.85;62.87
79413;BME280;68863;49.528;11.010;2023-04-06T04:48:21;98556.53;;;-0.88;63.26
79413;BME280;68863;49.528;11.010;2023-04-06T04:49:26;98562.44;;;-0.82;63.43
79413;BME280;68863;49.528;11.010;2023-04-06T04:50:30;98560.72;;;-0.83;63.21
79413;BME280;68863;49.528;11.010;2023-04-06T04:51:30;98562.53;;;-0.88;63.88
79413;BME280;68863;49.528;11.010;2023-04-06T04:52:32;98552.97;;;-0.81;63.27
79413;BME280;68863;49.528;11.010;2023-04-06T04:53:32;98569.22;;;-0.78;62.93
79413;BME280;68863;49.528;11.010;2023-04-06T04:54:33;98557.44;;;-0.91;63.57
79413;BME280;68863;49.528;11.010;2023-04-06T04:55:33;98559.91;;;-0.85;62.94
79413;BME280;68863;49.528;11.010;2023-04-06T04:56:33;98561.50;;;-0.78;62.73
79413;BME280;68863;49.528;11.010;2023-04-06T04:57:34;98567.69;;;-0.88;63.44
79413;BME280;68863;49.528;11.010;2023-04-06T04:58:34;98566.06;;;-0.92;63.50
79413;BME280;68863;49.528;11.010;2023-04-06T04:59:34;98565.06;;;-0.86;63.57
79413;BME280;68863;49.528;11.010;2023-04-06T05:00:35;98565.06;;;-0.85;63.26
79413;BME280;68863;49.528;11.010;2023-04-06T05:01:35;98562.34;;;-0.79;63.31
79413;BME280;68863;49.528;11.010;2023-04-06T05:02:35;98562.44;;;-0.83;63.11
79413;BME280;68863;49.528;11.010;2023-04-06T05:03:36;98560.84;;;-0.89;63.38
79413;BME280;68863;49.528;11.010;2023-04-06T05:04:38;98559.06;;;-0.85;63.21
79413;BME280;68863;49.528;11.010;2023-04-06T05:05:38;98566.97;;;-0.94;62.87
79413;BME280;68863;49.528;11.010;2023-04-06T05:06:39;98561.56;;;-0.82;62.54
79413;BME280;68863;49.528;11.010;2023-04-06T05:07:39;98562.44;;;-0.83;62.74
79413;BME280;68863;49.528;11.010;2023-04-06T05:08:40;98564.91;;;-0.77;62.97
79413;BME280;68863;49.528;11.010;2023-04-06T05:09:41;98569.22;;;-0.78;62.83
79413;BME280;68863;49.528;11.010;2023-04-06T05:10:42;98567.28;;;-0.68;62.48
79413;BME280;68863;49.528;11.010;2023-04-06T05:11:42;98568.91;;;-0.64;62.33
79413;BME280;68863;49.528;11.010;2023-04-06T05:12:42;98565.44;;;-0.61;62.02
79413;BME280;68863;49.528;11.010;2023-04-06T05:13:43;98564.59;;;-0.63;62.43
79413;BME280;68863;49.528;11.010;2023-04-06T05:14:43;98559.44;;;-0.63;62.38
79413;BME280;68863;49.528;11.010;2023-04-06T05:15:43;98566.41;;;-0.67;61.96
79413;BME280;68863;49.528;11.010;2023-04-06T05:16:44;98562.88;;;-0.63;61.80
79413;BME280;68863;49.528;11.010;2023-04-06T05:17:44;98565.53;;;-0.66;61.94